Flight Track Log - Related Links

Times and Time Zones

All times are in EDT time to prevent confusion due to time zone crossing. See the CPZ5718 flight status page for this flight to view local times or setup timezone preferences in your user account.

Time Position Orientation Groundspeed Altitude Reporting Facility
EDT Latitude Longitude Course Direction KTS MPH feet Rate Location/Type
Wed 06:46:51 AM 42.7714 -73.8092 281° West 151 174 1,300  Level Boston Center
Wed 06:48:11 AM 42.8314 -73.8500 333° Northwest 218 251 3,300 1,906 Climbing Boston Center
Wed 06:49:00 AM 42.8377 -74.3595 283° West  Level FlightAware Approximate
Wed 06:49:41 AM 42.9181 -73.9172 330° Northwest 253 291 6,700  Level Boston Center
Wed 06:50:00 AM 42.8615 -74.5020 283° West  Level FlightAware Approximate
Wed 06:50:39 AM 42.9842 -73.9697 330° Northwest 266 306 8,900  Level Boston Center
Wed 06:51:00 AM 42.8949 -74.6343 281° West  Level FlightAware Approximate
Wed 06:51:40 AM 43.0522 -74.0256 329° Northwest 281 323 11,000  Level Boston Center
Wed 06:52:00 AM 42.9146 -74.7781 281° West  Level FlightAware Approximate
Wed 06:52:41 AM 43.1156 -74.1011 319° Northwest 297 342 12,200  Level Boston Center
Wed 06:53:39 AM 43.1158 -74.2206 270° West 297 342 14,200 1,881 Climbing Boston Center
Wed 06:54:39 AM 43.1222 -74.3403 274° West 316 364 15,900 1,537 Climbing Boston Center
Wed 06:55:40 AM 43.1244 -74.4542 272° West 329 379 17,300 1,563 Climbing Boston Center
Wed 06:56:38 AM 43.1264 -74.5767 271° West 334 384 19,000 1,932 Climbing Boston Center
Wed 06:57:38 AM 43.1303 -74.7047 272° West 334 384 21,100 2,033 Climbing Boston Center
Wed 06:58:39 AM 43.1339 -74.8300 272° West 334 384 23,100 1,785 Climbing Boston Center
Wed 06:59:39 AM 43.1375 -74.9583 272° West 334 384 24,700 1,475 Climbing Boston Center
Wed 07:00:41 AM 43.1406 -75.0978 272° West 328 377 26,100 1,279 Climbing Boston Center
Wed 07:01:41 AM 43.1436 -75.2289 272° West 333 383 27,300 1,100 Climbing Boston Center
Wed 07:02:41 AM 43.1444 -75.3656 271° West 345 397 28,300 1,000 Climbing Boston Center
Wed 07:03:41 AM 43.1533 -75.4997 275° West 350 403 29,300 1,068 Climbing Boston Center
Wed 07:04:39 AM 43.1644 -75.6314 277° West 355 409 30,400 908 Climbing Boston Center
Wed 07:05:40 AM 43.1772 -75.7686 277° West 355 409 31,100 744 Climbing Boston Center
Wed 07:06:40 AM 43.1878 -75.9058 276° West 360 414 31,900 763 Climbing Boston Center
Wed 07:07:38 AM 43.1981 -76.0433 276° West 365 420 32,600 807 Climbing Boston Center
Wed 07:08:39 AM 43.2081 -76.1808 276° West 365 420 33,500 694 Climbing Boston Center
Wed 07:09:39 AM 43.2203 -76.3156 277° West 370 426 34,000 248 Climbing Boston Center
Wed 07:10:40 AM 43.2300 -76.4586 275° West 370 426 34,000  Level Boston Center
Wed 07:11:31 AM 43.2333 -76.5500 273° West 380 437 34,000  Level Toronto Center
Wed 07:12:07 AM 43.2464 -76.6639 279° West 376 433 34,000  Level Cleveland Center
Wed 07:13:07 AM 43.2575 -76.8144 276° West 392 451 34,000  Level Cleveland Center
Wed 07:14:07 AM 43.2708 -76.9678 277° West 405 466 34,000  Level Cleveland Center
Wed 07:15:07 AM 43.2878 -77.1178 279° West 405 466 34,000  Level Cleveland Center
Wed 07:16:08 AM 43.3133 -77.2733 283° West 410 472 34,000  Level Cleveland Center
Wed 07:17:07 AM 43.3383 -77.4292 282° West 410 472 34,000  Level Cleveland Center
Wed 07:18:07 AM 43.3633 -77.5850 282° West 415 478 34,000  Level Cleveland Center
Wed 07:19:07 AM 43.3883 -77.7408 282° West 415 478 34,000  Level Cleveland Center
Wed 07:20:07 AM 43.4147 -77.8967 283° West 415 478 34,000  Level Cleveland Center
Wed 07:21:07 AM 43.4392 -78.0531 282° West 420 483 34,000  Level Cleveland Center
Wed 07:22:07 AM 43.4656 -78.2150 283° West 430 495 34,000  Level Cleveland Center
Wed 07:23:07 AM 43.4894 -78.3742 282° West 430 495 34,000  Level Cleveland Center
Wed 07:24:07 AM 43.5153 -78.5367 282° West 430 495 34,000  Level Cleveland Center
Wed 07:25:31 AM 43.5500 -78.7667 282° West 430 495 34,000  Level Toronto Center
Wed 07:26:31 AM 43.5667 -78.9167 279° West 430 495 34,000  Level Toronto Center
Wed 07:27:31 AM 43.5833 -79.0833 278° West 430 495 34,000  Level Toronto Center
Wed 07:28:31 AM 43.6167 -79.2333 287° West 440 506 34,000  Level Toronto Center
Wed 07:29:31 AM 43.6333 -79.4000 278° West 440 506 34,000  Level Toronto Center
Wed 07:30:31 AM 43.6667 -79.5667 286° West 440 506 34,000  Level Toronto Center
Wed 07:31:31 AM 43.6833 -79.7333 278° West 440 506 34,000  Level Toronto Center
Wed 07:32:31 AM 43.7000 -79.9167 277° West 440 506 34,000  Level Toronto Center
Wed 07:33:31 AM 43.7333 -80.0667 287° West 440 506 34,000  Level Toronto Center
Wed 07:34:31 AM 43.7500 -80.2333 278° West 440 506 34,000  Level Toronto Center
Wed 07:35:31 AM 43.7833 -80.4000 286° West 440 506 34,000  Level Toronto Center
Wed 07:36:31 AM 43.8000 -80.5500 279° West 440 506 34,000  Level Toronto Center
Wed 07:37:31 AM 43.8167 -80.7500 277° West 440 506 34,000  Level Toronto Center
Wed 07:38:31 AM 43.8333 -80.9000 279° West 440 506 34,000  Level Toronto Center
Wed 07:39:31 AM 43.8500 -81.0667 278° West 440 506 34,000  Level Toronto Center
Wed 07:40:31 AM 43.8833 -81.2333 286° West 440 506 34,000  Level Toronto Center
Wed 07:41:31 AM 43.9000 -81.3833 279° West 440 506 34,000  Level Toronto Center
Wed 07:42:31 AM 43.9167 -81.5833 277° West 440 506 34,000  Level Toronto Center
Wed 07:43:31 AM 43.9500 -81.7333 287° West 440 506 34,000  Level Toronto Center
Wed 07:44:31 AM 43.9667 -81.9000 278° West 440 506 34,000  Level Toronto Center
Wed 07:45:31 AM 43.9833 -82.0667 278° West 440 506 34,000  Level Toronto Center
Wed 07:46:31 AM 44.0000 -82.2500 277° West 440 506 34,000  Level Toronto Center
Wed 07:47:30 AM 44.0314 -82.4089 285° West 440 506 34,000  Level Minneapolis Center
Wed 07:48:31 AM 44.0494 -82.5756 279° West 439 505 34,000  Level Minneapolis Center
Wed 07:49:32 AM 44.0692 -82.7425 279° West 439 505 34,000  Level Minneapolis Center
Wed 07:50:33 AM 44.0867 -82.9117 278° West 443 510 34,000  Level Minneapolis Center
Wed 07:51:35 AM 44.1067 -83.0794 279° West 443 510 34,000  Level Minneapolis Center
Wed 07:52:36 AM 44.1247 -83.2481 279° West 442 509 34,000  Level Minneapolis Center
Wed 07:53:37 AM 44.1433 -83.4161 279° West 441 507 34,000  Level Minneapolis Center
Wed 07:54:38 AM 44.1667 -83.6186 279° West 443 510 34,000  Level Minneapolis Center
Wed 07:55:39 AM 44.1833 -83.7867 278° West 440 506 34,000  Level Minneapolis Center
Wed 07:56:41 AM 44.2008 -83.9550 278° West 441 507 34,000  Level Minneapolis Center
Wed 07:57:42 AM 44.2178 -84.1253 278° West 443 510 34,000  Level Minneapolis Center
Wed 07:58:43 AM 44.2361 -84.2972 279° West 448 516 34,000  Level Minneapolis Center
Wed 07:59:46 AM 44.2531 -84.4689 278° West 449 517 34,000  Level Minneapolis Center
Wed 08:00:48 AM 44.2700 -84.6442 278° West 456 525 34,000  Level Minneapolis Center
Wed 08:01:49 AM 44.2867 -84.8172 278° West 453 521 34,000  Level Minneapolis Center
Wed 08:02:50 AM 44.3064 -85.0264 278° West 454 522 34,000  Level Minneapolis Center
Wed 08:03:52 AM 44.3225 -85.1981 278° West 448 516 34,000  Level Minneapolis Center
Wed 08:04:53 AM 44.3386 -85.3708 277° West 449 517 34,000  Level Minneapolis Center
Wed 08:05:54 AM 44.3539 -85.5417 277° West 444 511 34,000  Level Minneapolis Center
Wed 08:06:56 AM 44.3681 -85.7131 277° West 443 510 34,000  Level Minneapolis Center
Wed 08:07:58 AM 44.3831 -85.8825 277° West 440 506 34,000  Level Minneapolis Center
Wed 08:08:59 AM 44.3981 -86.0564 277° West 445 512 34,000  Level Minneapolis Center
Wed 08:10:00 AM 44.4119 -86.2306 276° West 447 514 34,000  Level Minneapolis Center
Wed 08:11:02 AM 44.4267 -86.4039 277° West 446 513 34,000  Level Minneapolis Center
Wed 08:12:03 AM 44.4392 -86.5764 276° West 445 512 34,000  Level Minneapolis Center
Wed 08:13:05 AM 44.4522 -86.7503 276° West 447 514 34,000  Level Minneapolis Center
Wed 08:14:07 AM 44.4675 -86.9592 276° West 449 517 34,000  Level Minneapolis Center
Wed 08:15:08 AM 44.4817 -87.1333 277° West 449 517 34,000  Level Minneapolis Center
Wed 08:16:10 AM 44.4950 -87.3072 276° West 449 517 34,000  Level Minneapolis Center
Wed 08:17:12 AM 44.5064 -87.4781 275° West 445 512 34,000  Level Minneapolis Center
Wed 08:18:13 AM 44.5186 -87.6497 276° West 443 510 34,000  Level Minneapolis Center
Wed 08:19:15 AM 44.5306 -87.8236 276° West 446 513 34,000  Level Minneapolis Center
Wed 08:20:17 AM 44.5419 -87.9956 275° West 445 512 34,000  Level Minneapolis Center
Wed 08:21:18 AM 44.5533 -88.1692 275° West 448 516 34,000  Level Minneapolis Center
Wed 08:22:20 AM 44.5739 -88.3561 279° West 448 516 34,000  Level Minneapolis Center
Wed 08:23:22 AM 44.5939 -88.5286 279° West 445 512 34,000  Level Minneapolis Center
Wed 08:24:24 AM 44.6131 -88.7028 279° West 453 521 34,000  Level Minneapolis Center
Wed 08:25:25 AM 44.6375 -88.9100 279° West 451 519 34,000  Level Minneapolis Center
Wed 08:26:27 AM 44.6564 -89.0819 279° West 445 512 34,000  Level Minneapolis Center
Wed 08:27:29 AM 44.6756 -89.2564 279° West 450 518 34,000  Level Minneapolis Center
Wed 08:28:31 AM 44.6947 -89.4308 279° West 452 520 34,000 -98 Level Minneapolis Center
Wed 08:29:32 AM 44.7133 -89.6064 279° West 453 521 33,800 -537 Descending Minneapolis Center
Wed 08:30:34 AM 44.7328 -89.7833 279° West 457 526 32,900 -823 Descending Minneapolis Center
Wed 08:31:36 AM 44.7519 -89.9647 279° West 465 535 32,100 -435 Descending Minneapolis Center
Wed 08:32:38 AM 44.7703 -90.1453 278° West 466 536 32,000 -48 Descending Minneapolis Center
Wed 08:33:40 AM 44.7914 -90.3583 278° West 460 529 32,000  Level Minneapolis Center
Wed 08:34:42 AM 44.8086 -90.5303 278° West 455 524 32,000 -146 Level Minneapolis Center
Wed 08:35:43 AM 44.8247 -90.7036 278° West 449 517 31,700 -634 Descending Minneapolis Center
Wed 08:36:45 AM 44.8422 -90.8806 278° West 455 524 30,700 -1,016 Descending Minneapolis Center
Wed 08:37:47 AM 44.8564 -91.0494 277° West 443 510 29,600 -1,016 Descending Minneapolis Center
Wed 08:38:49 AM 44.8736 -91.2206 278° West 441 507 28,600 -1,694 Descending Minneapolis Center
Wed 08:39:51 AM 44.8922 -91.4219 278° West 436 502 26,100 -2,565 Descending Minneapolis Center
Wed 08:40:53 AM 44.9150 -91.5778 282° West 416 479 23,300 -2,634 Descending Minneapolis Center
Wed 08:41:54 AM 44.9425 -91.7242 285° West 396 456 20,700 -2,439 Descending Minneapolis Center
Wed 08:42:56 AM 44.9694 -91.8647 285° West 381 438 18,300 -2,323 Descending Minneapolis Center
Wed 08:43:58 AM 44.9956 -92.0000 285° West 361 415 15,900 -2,274 Descending Minneapolis Center
Wed 08:45:00 AM 45.0197 -92.1319 285° West 350 403 13,600 -2,323 Descending Minneapolis Center
Wed 08:46:02 AM 45.0469 -92.2847 284° West 336 387 11,100 -1,306 Descending Minneapolis Center
Wed 08:47:04 AM 45.0103 -92.4033 246° West 340 391 10,900 -532 Descending Minneapolis Center
Wed 08:48:06 AM 44.9656 -92.5014 237° Southwest 301 346 10,000 -927 Descending Minneapolis Center
Wed 08:49:07 AM 44.9242 -92.5967 238° Southwest 285 328 9,000 -976 Descending Minneapolis Center
Wed 08:50:09 AM 44.8817 -92.6906 237° Southwest 285 328 8,000 -968 Descending Minneapolis Center
Wed 08:51:11 AM 44.8411 -92.7817 238° Southwest 277 319 7,000 -1,113 Descending Minneapolis Center
Wed 08:52:13 AM 44.8119 -92.8761 247° West 269 310 5,700 -1,597 Descending Minneapolis Center
Wed 08:53:15 AM 44.8119 -92.9953 270° West 255 293 3,700 -1,415 Descending Minneapolis Center
Wed 08:54:16 AM 44.8292 -93.0750 287° West 217 250 2,800 -878 Descending Minneapolis Center
Wed 08:55:18 AM 44.8542 -93.1319 302° West 175 201 1,900 -774 Descending Minneapolis Center
Wed 08:56:20 AM 44.8733 -93.1756 302° West 134 154 1,200 -677 Descending Minneapolis Center

Login

Don't have an account? Register now (free) for customized features, flight alerts, and more!